sensor_id;sensor_type;location;lat;lon;timestamp;pressure;altitude;pressure_sealevel;temperature;humidity
72636;BME280;60679;48.888;15.544;2023-04-10T00:00:43;96985.28;;;0.43;74.69
72636;BME280;60679;48.888;15.544;2023-04-10T00:03:10;96988.00;;;0.34;74.92
72636;BME280;60679;48.888;15.544;2023-04-10T00:05:35;96982.13;;;0.30;75.15
72636;BME280;60679;48.888;15.544;2023-04-10T00:08:01;96978.91;;;0.27;75.04
72636;BME280;60679;48.888;15.544;2023-04-10T00:10:27;96983.38;;;0.26;75.04
72636;BME280;60679;48.888;15.544;2023-04-10T00:12:55;96976.53;;;0.24;75.08
72636;BME280;60679;48.888;15.544;2023-04-10T00:15:21;96977.66;;;0.21;75.25
72636;BME280;60679;48.888;15.544;2023-04-10T00:17:47;96975.16;;;0.20;75.08
72636;BME280;60679;48.888;15.544;2023-04-10T00:20:14;96966.91;;;0.13;75.04
72636;BME280;60679;48.888;15.544;2023-04-10T00:22:40;96967.03;;;0.12;75.19
72636;BME280;60679;48.888;15.544;2023-04-10T00:25:07;96963.28;;;0.05;75.09
72636;BME280;60679;48.888;15.544;2023-04-10T00:27:32;96967.47;;;-0.03;75.07
72636;BME280;60679;48.888;15.544;2023-04-10T00:29:58;96968.75;;;-0.07;75.46
72636;BME280;60679;48.888;15.544;2023-04-10T00:32:23;96961.34;;;-0.03;75.23
72636;BME280;60679;48.888;15.544;2023-04-10T00:34:49;96959.94;;;0.03;75.32
72636;BME280;60679;48.888;15.544;2023-04-10T00:37:14;96958.13;;;0.03;75.33
72636;BME280;60679;48.888;15.544;2023-04-10T00:39:39;96960.75;;;0.03;75.25
72636;BME280;60679;48.888;15.544;2023-04-10T00:42:05;96959.22;;;0.00;75.21
72636;BME280;60679;48.888;15.544;2023-04-10T00:44:36;96965.09;;;-0.06;75.20
72636;BME280;60679;48.888;15.544;2023-04-10T00:47:05;96960.22;;;-0.10;75.25
72636;BME280;60679;48.888;15.544;2023-04-10T00:49:30;96967.09;;;-0.17;75.43
72636;BME280;60679;48.888;15.544;2023-04-10T00:51:56;96964.16;;;-0.24;75.44
72636;BME280;60679;48.888;15.544;2023-04-10T00:54:22;96968.22;;;-0.29;75.40
72636;BME280;60679;48.888;15.544;2023-04-10T00:56:48;96963.88;;;-0.30;75.58
72636;BME280;60679;48.888;15.544;2023-04-10T00:59:14;96970.59;;;-0.26;75.46
72636;BME280;60679;48.888;15.544;2023-04-10T01:01:40;96963.44;;;-0.16;75.71
72636;BME280;60679;48.888;15.544;2023-04-10T01:04:06;96970.00;;;-0.01;75.65
72636;BME280;60679;48.888;15.544;2023-04-10T01:07:03;96972.78;;;0.07;75.45
72636;BME280;60679;48.888;15.544;2023-04-10T01:17:31;96978.25;;;0.06;75.37
72636;BME280;60679;48.888;15.544;2023-04-10T01:25:25;96965.94;;;0.05;75.49
72636;BME280;60679;48.888;15.544;2023-04-10T01:30:26;96957.13;;;-0.06;75.63
72636;BME280;60679;48.888;15.544;2023-04-10T01:32:54;96956.75;;;-0.01;nan
72636;BME280;60679;48.888;15.544;2023-04-10T01:35:21;96962.16;;;-0.03;75.56
72636;BME280;60679;48.888;15.544;2023-04-10T01:37:48;96958.69;;;-0.13;75.55
72636;BME280;60679;48.888;15.544;2023-04-10T01:40:16;96953.25;;;-0.21;75.68
72636;BME280;60679;48.888;15.544;2023-04-10T01:42:54;96955.22;;;-0.32;75.72
72636;BME280;60679;48.888;15.544;2023-04-10T01:45:23;96963.44;;;-0.35;75.60
72636;BME280;60679;48.888;15.544;2023-04-10T01:47:50;96966.66;;;-0.41;75.57
72636;BME280;60679;48.888;15.544;2023-04-10T01:50:17;96963.03;;;-0.50;75.72
72636;BME280;60679;48.888;15.544;2023-04-10T01:52:44;96963.03;;;-0.50;75.83
72636;BME280;60679;48.888;15.544;2023-04-10T01:55:10;96959.38;;;-0.59;75.77
72636;BME280;60679;48.888;15.544;2023-04-10T01:57:36;96964.13;;;-0.62;75.69
72636;BME280;60679;48.888;15.544;2023-04-10T02:00:05;96968.88;;;-0.66;75.71
72636;BME280;60679;48.888;15.544;2023-04-10T02:02:32;96974.19;;;-0.66;75.94
72636;BME280;60679;48.888;15.544;2023-04-10T02:04:58;96971.38;;;-0.64;75.84
72636;BME280;60679;48.888;15.544;2023-04-10T02:14:54;96964.69;;;-0.68;75.75
72636;BME280;60679;48.888;15.544;2023-04-10T02:17:25;96967.88;;;-0.74;75.94
72636;BME280;60679;48.888;15.544;2023-04-10T02:19:53;96969.97;;;-0.78;75.99
72636;BME280;60679;48.888;15.544;2023-04-10T02:22:20;96975.00;;;-0.75;76.02
72636;BME280;60679;48.888;15.544;2023-04-10T02:24:51;96977.38;;;-0.72;75.96
72636;BME280;60679;48.888;15.544;2023-04-10T02:27:32;96972.91;;;-0.71;76.02
72636;BME280;60679;48.888;15.544;2023-04-10T02:30:01;96979.47;;;-0.75;75.91
72636;BME280;60679;48.888;15.544;2023-04-10T02:32:31;96978.19;;;-0.81;75.96
72636;BME280;60679;48.888;15.544;2023-04-10T02:34:57;96977.63;;;-0.84;75.93
72636;BME280;60679;48.888;15.544;2023-04-10T02:37:23;96979.84;;;-0.89;76.10
72636;BME280;60679;48.888;15.544;2023-04-10T02:39:50;96976.63;;;-0.93;76.20
72636;BME280;60679;48.888;15.544;2023-04-10T02:42:15;96975.91;;;-0.95;76.27
72636;BME280;60679;48.888;15.544;2023-04-10T02:44:41;96967.66;;;-1.01;76.04
72636;BME280;60679;48.888;15.544;2023-04-10T02:47:06;96968.09;;;-1.06;76.05
72636;BME280;60679;48.888;15.544;2023-04-10T02:49:32;96965.00;;;-1.11;76.10
72636;BME280;60679;48.888;15.544;2023-04-10T02:52:01;96957.91;;;-1.10;76.23
72636;BME280;60679;48.888;15.544;2023-04-10T02:54:27;96961.38;;;-1.10;76.14
72636;BME280;60679;48.888;15.544;2023-04-10T02:56:53;96959.56;;;-1.09;76.16
72636;BME280;60679;48.888;15.544;2023-04-10T02:59:18;96958.03;;;-1.12;76.15
72636;BME280;60679;48.888;15.544;2023-04-10T03:01:45;96961.66;;;-1.13;76.40
72636;BME280;60679;48.888;15.544;2023-04-10T03:04:11;96962.94;;;-1.07;76.32
72636;BME280;60679;48.888;15.544;2023-04-10T03:06:37;96963.47;;;-1.04;76.12
72636;BME280;60679;48.888;15.544;2023-04-10T03:09:02;96961.66;;;-1.03;76.12
72636;BME280;60679;48.888;15.544;2023-04-10T03:11:28;96969.63;;;-1.03;76.29
72636;BME280;60679;48.888;15.544;2023-04-10T03:13:54;96971.31;;;-1.02;76.05
72636;BME280;60679;48.888;15.544;2023-04-10T03:16:22;96965.28;;;-1.04;76.02
72636;BME280;60679;48.888;15.544;2023-04-10T03:18:47;96970.72;;;-1.06;76.01
72636;BME280;60679;48.888;15.544;2023-04-10T03:21:13;96970.88;;;-1.07;76.20
72636;BME280;60679;48.888;15.544;2023-04-10T03:23:38;96967.81;;;-1.03;76.07
72636;BME280;60679;48.888;15.544;2023-04-10T03:26:04;96961.28;;;-0.99;75.91
72636;BME280;60679;48.888;15.544;2023-04-10T03:28:30;96971.03;;;-0.99;76.21
72636;BME280;60679;48.888;15.544;2023-04-10T03:30:57;96971.03;;;-0.99;76.22
72636;BME280;60679;48.888;15.544;2023-04-10T03:33:22;96972.00;;;-1.00;76.37
72636;BME280;60679;48.888;15.544;2023-04-10T03:35:47;96973.81;;;-1.01;76.26
72636;BME280;60679;48.888;15.544;2023-04-10T03:38:13;96974.66;;;-1.00;76.20
72636;BME280;60679;48.888;15.544;2023-04-10T03:40:38;96972.16;;;-1.02;76.11
72636;BME280;60679;48.888;15.544;2023-04-10T03:43:04;96974.81;;;-1.02;76.11
72636;BME280;60679;48.888;15.544;2023-04-10T03:45:30;96977.47;;;-1.02;75.88
72636;BME280;60679;48.888;15.544;2023-04-10T03:47:55;96975.88;;;-1.04;76.04
72636;BME280;60679;48.888;15.544;2023-04-10T03:50:21;96981.19;;;-1.04;75.90
72636;BME280;60679;48.888;15.544;2023-04-10T03:52:50;96984.13;;;-1.07;75.99
72636;BME280;60679;48.888;15.544;2023-04-10T03:55:15;96978.94;;;-1.09;75.95
72636;BME280;60679;48.888;15.544;2023-04-10T03:57:44;96976.00;;;-1.16;76.18
72636;BME280;60679;48.888;15.544;2023-04-10T04:00:11;96977.16;;;-1.08;75.95
72636;BME280;60679;48.888;15.544;2023-04-10T04:02:36;96975.47;;;-1.09;75.85
72636;BME280;60679;48.888;15.544;2023-04-10T04:05:02;96973.59;;;-1.19;75.95
72636;BME280;60679;48.888;15.544;2023-04-10T04:07:27;96976.09;;;-1.27;75.91
72636;BME280;60679;48.888;15.544;2023-04-10T04:09:53;96972.75;;;-1.29;75.96
72636;BME280;60679;48.888;15.544;2023-04-10T04:12:19;96973.72;;;-1.30;75.95
72636;BME280;60679;48.888;15.544;2023-04-10T04:14:44;96975.66;;;-1.32;76.05
72636;BME280;60679;48.888;15.544;2023-04-10T04:17:10;96973.16;;;-1.33;76.08
72636;BME280;60679;48.888;15.544;2023-04-10T04:19:36;96974.13;;;-1.34;76.13
72636;BME280;60679;48.888;15.544;2023-04-10T04:22:01;96968.72;;;-1.33;75.95
72636;BME280;60679;48.888;15.544;2023-04-10T04:24:27;96966.31;;;-1.36;76.06
72636;BME280;60679;48.888;15.544;2023-04-10T04:26:52;96974.97;;;-1.34;75.72
72636;BME280;60679;48.888;15.544;2023-04-10T04:29:18;96964.81;;;-1.29;75.80
72636;BME280;60679;48.888;15.544;2023-04-10T04:31:43;96972.47;;;-1.26;75.86
72636;BME280;60679;48.888;15.544;2023-04-10T04:34:08;96974.97;;;-1.24;75.85
72636;BME280;60679;48.888;15.544;2023-04-10T04:36:36;96971.06;;;-1.30;75.71
72636;BME280;60679;48.888;15.544;2023-04-10T04:39:04;96978.84;;;-1.38;75.54
72636;BME280;60679;48.888;15.544;2023-04-10T04:41:30;96982.75;;;-1.42;75.68
72636;BME280;60679;48.888;15.544;2023-04-10T04:43:57;96984.28;;;-1.39;75.34
72636;BME280;60679;48.888;15.544;2023-04-10T04:46:23;96983.88;;;-1.35;75.37
72636;BME280;60679;48.888;15.544;2023-04-10T04:48:48;96980.84;;;-1.30;nan
72636;BME280;60679;48.888;15.544;2023-04-10T04:51:14;96988.22;;;-1.24;74.95
72636;BME280;60679;48.888;15.544;2023-04-10T04:53:39;96980.84;;;-1.21;74.99
72636;BME280;60679;48.888;15.544;2023-04-10T04:56:05;96990.06;;;-1.15;75.09
72636;BME280;60679;48.888;15.544;2023-04-10T04:58:30;96988.00;;;-1.11;75.29
72636;BME280;60679;48.888;15.544;2023-04-10T05:00:56;96990.25;;;-1.07;74.65
72636;BME280;60679;48.888;15.544;2023-04-10T05:03:21;96996.28;;;-1.05;75.03
72636;BME280;60679;48.888;15.544;2023-04-10T05:05:47;96996.69;;;-1.00;74.77
72636;BME280;60679;48.888;15.544;2023-04-10T05:08:12;96995.06;;;-0.91;74.84
72636;BME280;60679;48.888;15.544;2023-04-10T05:10:38;97000.94;;;-0.78;74.65
72636;BME280;60679;48.888;15.544;2023-04-10T05:13:03;97002.50;;;-0.66;74.76
72636;BME280;60679;48.888;15.544;2023-04-10T05:15:28;96996.13;;;-0.54;74.49
72636;BME280;60679;48.888;15.544;2023-04-10T05:17:54;97004.47;;;-0.39;74.37
72636;BME280;60679;48.888;15.544;2023-04-10T05:20:19;97006.59;;;-0.33;74.13
72636;BME280;60679;48.888;15.544;2023-04-10T05:22:46;97002.84;;;-0.21;74.28
72636;BME280;60679;48.888;15.544;2023-04-10T05:25:12;97001.56;;;-0.08;74.00
72636;BME280;60679;48.888;15.544;2023-04-10T05:27:37;96995.16;;;0.05;73.87
72636;BME280;60679;48.888;15.544;2023-04-10T05:30:03;97000.75;;;0.11;73.55
72636;BME280;60679;48.888;15.544;2023-04-10T05:32:28;97009.97;;;0.17;73.52
72636;BME280;60679;48.888;15.544;2023-04-10T05:34:54;97016.09;;;0.27;73.55
72636;BME280;60679;48.888;15.544;2023-04-10T05:37:19;97023.19;;;0.36;73.40
72636;BME280;60679;48.888;15.544;2023-04-10T05:39:45;97025.56;;;0.39;73.33
72636;BME280;60679;48.888;15.544;2023-04-10T05:42:10;97015.34;;;0.44;73.15
72636;BME280;60679;48.888;15.544;2023-04-10T05:44:36;97018.56;;;0.47;73.12
72636;BME280;60679;48.888;15.544;2023-04-10T05:47:01;97021.47;;;0.54;72.84
72636;BME280;60679;48.888;15.544;2023-04-10T05:49:26;97017.28;;;0.61;73.00
72636;BME280;60679;48.888;15.544;2023-04-10T05:51:52;97018.63;;;0.75;72.62
72636;BME280;60679;48.888;15.544;2023-04-10T05:54:17;97023.09;;;0.84;72.48
72636;BME280;60679;48.888;15.544;2023-04-10T05:56:43;97030.88;;;0.95;72.37
72636;BME280;60679;48.888;15.544;2023-04-10T05:59:08;97029.44;;;1.10;72.53
72636;BME280;60679;48.888;15.544;2023-04-10T06:01:34;97024.72;;;1.22;72.08
72636;BME280;60679;48.888;15.544;2023-04-10T06:03:59;97028.78;;;1.26;71.92
72636;BME280;60679;48.888;15.544;2023-04-10T06:06:31;97028.59;;;1.37;71.92
72636;BME280;60679;48.888;15.544;2023-04-10T06:08:57;97021.00;;;1.42;71.51
72636;BME280;60679;48.888;15.544;2023-04-10T06:11:23;97027.94;;;1.52;71.83
72636;BME280;60679;48.888;15.544;2023-04-10T06:13:48;97029.84;;;1.60;71.35
72636;BME280;60679;48.888;15.544;2023-04-10T06:16:14;97036.88;;;1.79;71.17
72636;BME280;60679;48.888;15.544;2023-04-10T06:18:40;97037.34;;;1.92;71.03
72636;BME280;60679;48.888;15.544;2023-04-10T06:21:06;97041.84;;;2.09;70.87
72636;BME280;60679;48.888;15.544;2023-04-10T06:23:32;97038.84;;;2.29;70.94
72636;BME280;60679;48.888;15.544;2023-04-10T06:25:57;97043.88;;;2.50;70.81
72636;BME280;60679;48.888;15.544;2023-04-10T06:28:23;97050.78;;;2.61;70.67
72636;BME280;60679;48.888;15.544;2023-04-10T06:30:48;97038.13;;;2.88;70.37
72636;BME280;60679;48.888;15.544;2023-04-10T06:33:13;97041.50;;;2.90;70.14
72636;BME280;60679;48.888;15.544;2023-04-10T06:35:40;97041.78;;;3.13;70.20
72636;BME280;60679;48.888;15.544;2023-04-10T06:38:06;97054.94;;;3.40;69.73
72636;BME280;60679;48.888;15.544;2023-04-10T06:40:31;97046.47;;;3.53;69.56
72636;BME280;60679;48.888;15.544;2023-04-10T06:42:58;97049.34;;;3.68;69.12
72636;BME280;60679;48.888;15.544;2023-04-10T06:45:24;97046.59;;;3.85;69.30
72636;BME280;60679;48.888;15.544;2023-04-10T06:47:50;97037.94;;;4.07;69.13
72636;BME280;60679;48.888;15.544;2023-04-10T06:50:15;97035.81;;;4.27;68.95
72636;BME280;60679;48.888;15.544;2023-04-10T06:52:41;97033.50;;;4.48;68.55
72636;BME280;60679;48.888;15.544;2023-04-10T06:55:06;97032.97;;;4.61;68.61
72636;BME280;60679;48.888;15.544;2023-04-10T06:57:35;97042.31;;;4.89;68.10
72636;BME280;60679;48.888;15.544;2023-04-10T07:00:00;97040.75;;;5.19;68.23
72636;BME280;60679;48.888;15.544;2023-04-10T07:02:26;97037.28;;;5.57;67.58
72636;BME280;60679;48.888;15.544;2023-04-10T07:04:51;97053.75;;;5.85;67.45
72636;BME280;60679;48.888;15.544;2023-04-10T07:07:17;97048.31;;;6.32;66.72
72636;BME280;60679;48.888;15.544;2023-04-10T07:09:43;97052.41;;;6.43;67.01
72636;BME280;60679;48.888;15.544;2023-04-10T07:12:09;97060.63;;;6.64;66.70
72636;BME280;60679;48.888;15.544;2023-04-10T07:14:35;97053.28;;;6.80;66.28
72636;BME280;60679;48.888;15.544;2023-04-10T07:17:01;97053.34;;;7.10;65.70
72636;BME280;60679;48.888;15.544;2023-04-10T07:19:26;97059.50;;;7.33;65.64
72636;BME280;60679;48.888;15.544;2023-04-10T07:21:52;97068.50;;;7.54;65.49
72636;BME280;60679;48.888;15.544;2023-04-10T07:24:17;97066.22;;;8.02;64.79
72636;BME280;60679;48.888;15.544;2023-04-10T07:26:44;97062.25;;;8.12;64.55
72636;BME280;60679;48.888;15.544;2023-04-10T07:29:09;97060.38;;;8.28;64.56
72636;BME280;60679;48.888;15.544;2023-04-10T07:31:35;97061.72;;;8.38;64.29
72636;BME280;60679;48.888;15.544;2023-04-10T07:34:02;97057.72;;;8.70;63.96
72636;BME280;60679;48.888;15.544;2023-04-10T07:36:27;97055.72;;;8.79;63.86
72636;BME280;60679;48.888;15.544;2023-04-10T07:38:53;97056.72;;;9.20;63.29
72636;BME280;60679;48.888;15.544;2023-04-10T07:41:19;97055.19;;;9.39;62.84
72636;BME280;60679;48.888;15.544;2023-04-10T07:43:44;97059.09;;;9.64;62.56
72636;BME280;60679;48.888;15.544;2023-04-10T07:46:11;97056.84;;;9.74;62.47
72636;BME280;60679;48.888;15.544;2023-04-10T07:48:36;97053.84;;;9.97;62.36
72636;BME280;60679;48.888;15.544;2023-04-10T07:51:02;97047.09;;;10.14;62.41
72636;BME280;60679;48.888;15.544;2023-04-10T07:53:27;97051.38;;;10.56;61.73
72636;BME280;60679;48.888;15.544;2023-04-10T07:55:52;97042.09;;;10.78;60.96
72636;BME280;60679;48.888;15.544;2023-04-10T07:58:18;97042.53;;;11.08;60.65
72636;BME280;60679;48.888;15.544;2023-04-10T08:00:43;97043.38;;;11.34;60.11
72636;BME280;60679;48.888;15.544;2023-04-10T08:03:11;97049.19;;;11.44;60.33
72636;BME280;60679;48.888;15.544;2023-04-10T08:05:37;97045.94;;;12.06;59.79
72636;BME280;60679;48.888;15.544;2023-04-10T08:08:05;97044.97;;;12.39;59.08
72636;BME280;60679;48.888;15.544;2023-04-10T08:10:30;97049.50;;;12.45;59.37
72636;BME280;60679;48.888;15.544;2023-04-10T08:12:56;97034.31;;;12.44;59.81
72636;BME280;60679;48.888;15.544;2023-04-10T08:15:21;97041.13;;;12.91;59.29
72636;BME280;60679;48.888;15.544;2023-04-10T08:17:49;97039.47;;;12.58;59.39
72636;BME280;60679;48.888;15.544;2023-04-10T08:20:21;97029.78;;;13.00;59.81
72636;BME280;60679;48.888;15.544;2023-04-10T08:22:46;97025.63;;;13.72;58.60
72636;BME280;60679;48.888;15.544;2023-04-10T08:25:15;97030.88;;;13.49;59.61
72636;BME280;60679;48.888;15.544;2023-04-10T08:27:59;97023.69;;;13.79;59.45
72636;BME280;60679;48.888;15.544;2023-04-10T08:30:25;97027.66;;;14.49;58.48
72636;BME280;60679;48.888;15.544;2023-04-10T08:32:50;97026.38;;;15.23;57.78
72636;BME280;60679;48.888;15.544;2023-04-10T08:35:16;97027.72;;;15.78;57.00
72636;BME280;60679;48.888;15.544;2023-04-10T08:37:41;97027.34;;;15.86;57.06
72636;BME280;60679;48.888;15.544;2023-04-10T08:40:07;97029.97;;;16.44;56.63
72636;BME280;60679;48.888;15.544;2023-04-10T08:42:32;97024.38;;;17.69;54.96
72636;BME280;60679;48.888;15.544;2023-04-10T08:44:57;97017.88;;;18.73;53.87
72636;BME280;60679;48.888;15.544;2023-04-10T08:47:26;97023.50;;;19.15;53.16
72636;BME280;60679;48.888;15.544;2023-04-10T08:49:56;97016.75;;;19.54;52.39
72636;BME280;60679;48.888;15.544;2023-04-10T08:52:28;97017.09;;;19.05;51.85
72636;BME280;60679;48.888;15.544;2023-04-10T08:54:56;97010.41;;;19.22;52.11
72636;BME280;60679;48.888;15.544;2023-04-10T08:57:24;97009.59;;;19.48;51.49
72636;BME280;60679;48.888;15.544;2023-04-10T08:59:52;97004.78;;;17.94;54.08
72636;BME280;60679;48.888;15.544;2023-04-10T09:02:18;97006.50;;;16.83;55.92
72636;BME280;60679;48.888;15.544;2023-04-10T09:04:48;97007.34;;;18.43;52.62
72636;BME280;60679;48.888;15.544;2023-04-10T09:07:20;97007.56;;;19.07;51.98
72636;BME280;60679;48.888;15.544;2023-04-10T09:09:47;96999.09;;;18.17;53.33
72636;BME280;60679;48.888;15.544;2023-04-10T09:12:12;97000.09;;;18.11;52.98
72636;BME280;60679;48.888;15.544;2023-04-10T09:14:39;97001.66;;;17.85;52.98
72636;BME280;60679;48.888;15.544;2023-04-10T09:19:37;97006.88;;;17.53;53.71
72636;BME280;60679;48.888;15.544;2023-04-10T09:22:02;96997.06;;;19.31;49.89
72636;BME280;60679;48.888;15.544;2023-04-10T09:24:27;97009.03;;;18.23;52.72
72636;BME280;60679;48.888;15.544;2023-04-10T09:26:54;97006.03;;;17.53;54.12
72636;BME280;60679;48.888;15.544;2023-04-10T09:29:19;97002.28;;;17.54;54.30
72636;BME280;60679;48.888;15.544;2023-04-10T09:31:45;96993.47;;;21.28;47.53
72636;BME280;60679;48.888;15.544;2023-04-10T09:34:17;96991.19;;;22.11;46.74
72636;BME280;60679;48.888;15.544;2023-04-10T09:36:51;96989.91;;;19.56;51.39
72636;BME280;60679;48.888;15.544;2023-04-10T09:39:17;96987.06;;;18.39;52.98
72636;BME280;60679;48.888;15.544;2023-04-10T09:44:12;96977.63;;;17.87;53.03
72636;BME280;60679;48.888;15.544;2023-04-10T09:46:38;96975.75;;;19.33;50.95
72636;BME280;60679;48.888;15.544;2023-04-10T09:49:03;96962.25;;;24.23;43.70
72636;BME280;60679;48.888;15.544;2023-04-10T09:51:34;96946.47;;;27.63;39.69
72636;BME280;60679;48.888;15.544;2023-04-10T09:54:01;96950.38;;;29.97;36.41
72636;BME280;60679;48.888;15.544;2023-04-10T09:56:28;96933.66;;;31.72;34.91
72636;BME280;60679;48.888;15.544;2023-04-10T09:58:58;96934.53;;;29.63;37.58
72636;BME280;60679;48.888;15.544;2023-04-10T10:01:27;96936.88;;;27.11;42.03
72636;BME280;60679;48.888;15.544;2023-04-10T10:03:54;96939.34;;;24.46;45.87
72636;BME280;60679;48.888;15.544;2023-04-10T10:06:21;96936.16;;;24.34;45.49
72636;BME280;60679;48.888;15.544;2023-04-10T10:08:48;96934.44;;;23.62;46.17
72636;BME280;60679;48.888;15.544;2023-04-10T10:11:18;96926.38;;;22.97;47.27
72636;BME280;60679;48.888;15.544;2023-04-10T10:13:51;96929.19;;;23.65;45.10
72636;BME280;60679;48.888;15.544;2023-04-10T10:16:38;96919.69;;;31.31;33.52
72636;BME280;60679;48.888;15.544;2023-04-10T10:19:20;96915.59;;;36.70;29.05
72636;BME280;60679;48.888;15.544;2023-04-10T10:21:50;96907.84;;;37.68;28.00
72636;BME280;60679;48.888;15.544;2023-04-10T10:24:18;96899.84;;;38.44;27.44
72636;BME280;60679;48.888;15.544;2023-04-10T10:26:46;96892.66;;;39.66;27.45
72636;BME280;60679;48.888;15.544;2023-04-10T10:29:14;96893.28;;;40.21;26.48
72636;BME280;60679;48.888;15.544;2023-04-10T10:31:40;96884.44;;;40.72;26.36
72636;BME280;60679;48.888;15.544;2023-04-10T10:34:07;96876.72;;;41.22;25.31
72636;BME280;60679;48.888;15.544;2023-04-10T10:36:37;96879.22;;;37.10;31.00
72636;BME280;60679;48.888;15.544;2023-04-10T10:39:17;96866.06;;;29.45;41.13
72636;BME280;60679;48.888;15.544;2023-04-10T10:44:35;96857.47;;;27.99;40.27
72636;BME280;60679;48.888;15.544;2023-04-10T10:47:25;96856.56;;;34.12;30.51
72636;BME280;60679;48.888;15.544;2023-04-10T10:49:53;96856.91;;;37.91;28.22
72636;BME280;60679;48.888;15.544;2023-04-10T10:58:06;96844.06;;;35.26;32.88
72636;BME280;60679;48.888;15.544;2023-04-10T11:05:55;96843.75;;;39.69;28.21
72636;BME280;60679;48.888;15.544;2023-04-10T11:13:26;96833.16;;;44.00;24.99
72636;BME280;60679;48.888;15.544;2023-04-10T11:15:53;96829.97;;;44.98;24.57
72636;BME280;60679;48.888;15.544;2023-04-10T11:32:01;96812.06;;;22.66;49.20
72636;BME280;60679;48.888;15.544;2023-04-10T11:34:28;96800.06;;;22.42;49.63
72636;BME280;60679;48.888;15.544;2023-04-10T11:37:00;96797.50;;;22.12;50.22
72636;BME280;60679;48.888;15.544;2023-04-10T11:39:28;96807.78;;;21.86;50.04
72636;BME280;60679;48.888;15.544;2023-04-10T11:41:54;96795.66;;;21.97;49.13
72636;BME280;60679;48.888;15.544;2023-04-10T11:46:54;96783.59;;;26.25;40.54
72636;BME280;60679;48.888;15.544;2023-04-10T11:49:26;96792.22;;;23.79;45.67
72636;BME280;60679;48.888;15.544;2023-04-10T11:51:52;96791.88;;;23.33;46.80
72636;BME280;60679;48.888;15.544;2023-04-10T11:54:25;96785.28;;;23.00;45.80
72636;BME280;60679;48.888;15.544;2023-04-10T11:59:23;96773.19;;;25.68;39.49
72636;BME280;60679;48.888;15.544;2023-04-10T12:01:50;96774.41;;;28.45;36.27
72636;BME280;60679;48.888;15.544;2023-04-10T12:04:19;96771.97;;;31.83;31.85
72636;BME280;60679;48.888;15.544;2023-04-10T12:06:55;96771.69;;;36.26;27.62
72636;BME280;60679;48.888;15.544;2023-04-10T12:09:21;96765.44;;;31.34;33.58
72636;BME280;60679;48.888;15.544;2023-04-10T12:12:07;96762.50;;;32.72;31.33
72636;BME280;60679;48.888;15.544;2023-04-10T12:14:39;96760.81;;;33.23;31.18
72636;BME280;60679;48.888;15.544;2023-04-10T12:17:06;96755.31;;;30.05;34.41
72636;BME280;60679;48.888;15.544;2023-04-10T12:19:33;96751.25;;;37.11;26.12
72636;BME280;60679;48.888;15.544;2023-04-10T12:21:59;96753.38;;;41.62;22.94
72636;BME280;60679;48.888;15.544;2023-04-10T12:24:45;96745.56;;;37.08;27.05
72636;BME280;60679;48.888;15.544;2023-04-10T12:27:24;96743.63;;;38.91;24.49
72636;BME280;60679;48.888;15.544;2023-04-10T12:29:52;96740.28;;;37.39;26.39
72636;BME280;60679;48.888;15.544;2023-04-10T12:32:18;96736.22;;;29.49;35.25
72636;BME280;60679;48.888;15.544;2023-04-10T12:34:54;96732.63;;;26.26;38.68
72636;BME280;60679;48.888;15.544;2023-04-10T12:37:24;96735.94;;;24.36;40.25
72636;BME280;60679;48.888;15.544;2023-04-10T12:39:50;96738.16;;;24.53;40.67
72636;BME280;60679;48.888;15.544;2023-04-10T12:42:18;96728.91;;;25.54;38.75
72636;BME280;60679;48.888;15.544;2023-04-10T12:44:59;96722.50;;;26.44;37.49
72636;BME280;60679;48.888;15.544;2023-04-10T12:47:27;96723.91;;;24.97;38.96
72636;BME280;60679;48.888;15.544;2023-04-10T12:50:05;96720.03;;;23.25;40.72
72636;BME280;60679;48.888;15.544;2023-04-10T12:52:32;96721.50;;;22.21;41.79
72636;BME280;60679;48.888;15.544;2023-04-10T12:55:08;96716.50;;;21.84;42.01
72636;BME280;60679;48.888;15.544;2023-04-10T12:57:35;96714.00;;;21.93;41.67
72636;BME280;60679;48.888;15.544;2023-04-10T13:00:00;96709.44;;;22.17;40.78
72636;BME280;60679;48.888;15.544;2023-04-10T13:02:27;96703.50;;;21.41;41.15
72636;BME280;60679;48.888;15.544;2023-04-10T13:04:54;96705.59;;;20.69;41.99
72636;BME280;60679;48.888;15.544;2023-04-10T13:07:19;96699.00;;;20.91;41.58
72636;BME280;60679;48.888;15.544;2023-04-10T13:09:44;96700.97;;;20.55;42.05
72636;BME280;60679;48.888;15.544;2023-04-10T13:12:12;96696.31;;;20.25;42.33
72636;BME280;60679;48.888;15.544;2023-04-10T13:14:37;96698.47;;;20.03;42.33
72636;BME280;60679;48.888;15.544;2023-04-10T13:17:02;96695.25;;;19.29;42.96
72636;BME280;60679;48.888;15.544;2023-04-10T13:19:28;96697.94;;;18.67;44.08
72636;BME280;60679;48.888;15.544;2023-04-10T13:21:53;96694.72;;;18.43;44.79
72636;BME280;60679;48.888;15.544;2023-04-10T13:24:19;96689.72;;;18.30;44.82
72636;BME280;60679;48.888;15.544;2023-04-10T13:26:44;96694.16;;;18.04;44.97
72636;BME280;60679;48.888;15.544;2023-04-10T13:29:09;96693.91;;;18.06;45.51
72636;BME280;60679;48.888;15.544;2023-04-10T13:31:35;96691.69;;;18.34;45.10
72636;BME280;60679;48.888;15.544;2023-04-10T13:34:00;96694.28;;;18.51;44.85
72636;BME280;60679;48.888;15.544;2023-04-10T13:36:25;96689.41;;;18.63;44.55
72636;BME280;60679;48.888;15.544;2023-04-10T13:38:51;96688.72;;;18.83;44.06
72636;BME280;60679;48.888;15.544;2023-04-10T13:41:16;96685.53;;;19.01;43.64
72636;BME280;60679;48.888;15.544;2023-04-10T13:43:42;96680.16;;;19.16;43.29
72636;BME280;60679;48.888;15.544;2023-04-10T13:46:07;96679.03;;;19.17;42.99
72636;BME280;60679;48.888;15.544;2023-04-10T13:48:32;96670.25;;;19.10;42.95
72636;BME280;60679;48.888;15.544;2023-04-10T13:50:58;96671.72;;;18.76;42.86
72636;BME280;60679;48.888;15.544;2023-04-10T13:53:23;96673.84;;;18.69;42.67
72636;BME280;60679;48.888;15.544;2023-04-10T13:55:48;96670.72;;;18.92;42.53
72636;BME280;60679;48.888;15.544;2023-04-10T13:58:14;96662.03;;;19.10;41.52